Time;durP1;ratioP1;P1;durP2;ratioP2;P2;SDS_P1;SDS_P2;PMS_P1;PMS_P2;Temp;Humidity;BMP_temperature;BMP_pressure;BME280_temperature;BME280_humidity;BME280_pressure;Samples;Min_cycle;Max_cycle;Signal;HPM_P1;HPM_P2
2023/04/30 00:00:51;;;;;;;6.13;4.50;;;9.80;82.00;;;;;;5031974;28;20025;-66
2023/04/30 00:03:16;;;;;;;5.45;4.35;;;9.80;82.10;;;;;;5051419;28;20027;-68
2023/04/30 00:05:42;;;;;;;5.25;4.00;;;9.80;82.00;;;;;;5051908;28;20029;-69
2023/04/30 00:08:07;;;;;;;5.68;3.97;;;9.80;81.80;;;;;;5051735;28;20031;-68
2023/04/30 00:10:33;;;;;;;5.47;4.20;;;9.90;81.60;;;;;;5043573;28;20088;-66
2023/04/30 00:12:59;;;;;;;7.00;3.80;;;9.90;81.30;;;;;;5051462;28;20029;-68
2023/04/30 00:15:24;;;;;;;5.53;3.65;;;10.00;81.00;;;;;;5051259;28;20060;-67
2023/04/30 00:17:51;;;;;;;7.32;4.78;;;10.00;80.80;;;;;;5051257;28;20024;-67
2023/04/30 00:20:16;;;;;;;4.85;3.70;;;10.00;80.70;;;;;;5051409;28;20044;-66
2023/04/30 00:22:42;;;;;;;5.93;4.28;;;10.00;80.70;;;;;;5051473;28;20463;-67
2023/04/30 00:25:08;;;;;;;6.47;4.32;;;10.00;80.70;;;;;;5050576;28;20032;-67
2023/04/30 00:27:33;;;;;;;5.80;3.75;;;9.90;81.00;;;;;;5051101;28;20040;-66
2023/04/30 00:29:59;;;;;;;7.13;4.68;;;9.90;81.00;;;;;;5051817;28;20036;-68
2023/04/30 00:32:25;;;;;;;7.18;4.00;;;9.80;81.20;;;;;;5050496;28;20383;-67
2023/04/30 00:34:50;;;;;;;5.88;4.07;;;9.80;81.40;;;;;;5033559;28;20495;-67
2023/04/30 00:37:16;;;;;;;5.57;4.00;;;9.70;81.50;;;;;;5050960;28;20017;-67
2023/04/30 00:39:41;;;;;;;5.38;3.72;;;9.70;81.70;;;;;;5051178;28;20025;-68
2023/04/30 00:42:07;;;;;;;4.63;3.63;;;9.80;81.60;;;;;;5050242;28;20031;-67
2023/04/30 00:44:32;;;;;;;5.05;3.40;;;9.70;81.30;;;;;;5051366;28;20031;-67
2023/04/30 00:46:58;;;;;;;4.72;3.38;;;9.80;81.20;;;;;;5050726;28;20387;-66
2023/04/30 00:49:23;;;;;;;6.07;4.00;;;9.80;80.90;;;;;;5050333;28;21417;-67
2023/04/30 00:51:50;;;;;;;4.50;3.58;;;9.80;80.80;;;;;;5066199;28;20406;-67
2023/04/30 00:54:19;;;;;;;4.55;3.22;;;9.80;80.80;;;;;;5050701;28;20368;-66
2023/04/30 00:56:45;;;;;;;4.25;3.60;;;9.80;80.70;;;;;;5050109;28;20033;-67
2023/04/30 00:59:12;;;;;;;6.18;3.78;;;9.80;80.70;;;;;;5048433;28;20028;-68
2023/04/30 01:01:38;;;;;;;4.43;3.55;;;9.70;80.70;;;;;;5049430;28;20025;-67
2023/04/30 01:04:04;;;;;;;5.10;4.20;;;9.80;80.70;;;;;;5050539;28;20079;-67
2023/04/30 01:06:30;;;;;;;4.72;3.58;;;9.70;80.90;;;;;;5046636;28;20017;-67
2023/04/30 01:08:56;;;;;;;5.90;4.07;;;9.70;81.20;;;;;;5046281;28;20094;-65
2023/04/30 01:11:31;;;;;;;7.35;4.63;;;9.60;81.50;;;;;;5050411;28;20021;-66
2023/04/30 01:14:23;;;;;;;5.35;4.13;;;9.50;82.20;;;;;;5050486;28;20067;-66
2023/04/30 01:17:07;;;;;;;5.80;4.47;;;9.40;82.30;;;;;;5039610;28;20037;-67
2023/04/30 01:19:41;;;;;;;5.80;4.80;;;9.40;82.50;;;;;;5047497;28;20032;-67
2023/04/30 01:22:30;;;;;;;7.35;4.47;;;9.40;83.10;;;;;;5032361;28;20041;-67
2023/04/30 01:25:23;;;;;;;5.97;4.40;;;9.40;82.90;;;;;;5048816;28;20040;-67
2023/04/30 01:28:08;;;;;;;5.13;3.90;;;9.40;82.90;;;;;;5049496;28;20033;-66
2023/04/30 01:30:34;;;;;;;6.72;4.50;;;9.40;82.80;;;;;;5050077;28;20029;-67
2023/04/30 01:33:00;;;;;;;5.93;4.45;;;9.40;82.50;;;;;;5050398;28;20458;-67
2023/04/30 01:35:38;;;;;;;7.30;4.45;;;9.40;83.30;;;;;;5031677;28;20167;-67
2023/04/30 01:38:34;;;;;;;6.25;4.53;;;9.40;82.80;;;;;;5050500;28;20029;-66
2023/04/30 01:41:22;;;;;;;5.80;3.97;;;9.40;83.10;;;;;;5049937;28;20185;-66
2023/04/30 01:44:07;;;;;;;4.70;3.90;;;9.30;83.10;;;;;;5040749;28;20059;-66
2023/04/30 01:46:33;;;;;;;4.93;3.65;;;9.40;82.90;;;;;;5049956;28;20017;-67
2023/04/30 01:49:01;;;;;;;5.90;3.92;;;9.40;82.60;;;;;;5050132;28;20100;-67
2023/04/30 01:51:41;;;;;;;5.03;3.45;;;9.40;82.40;;;;;;5049347;28;20025;-68
2023/04/30 01:54:30;;;;;;;4.97;3.92;;;9.40;82.30;;;;;;5050092;28;20029;-67
2023/04/30 01:57:16;;;;;;;4.85;3.75;;;9.50;82.10;;;;;;5050039;28;20036;-66
2023/04/30 01:59:43;;;;;;;4.35;3.35;;;9.50;82.00;;;;;;5049351;28;20509;-67
2023/04/30 02:02:09;;;;;;;4.35;3.70;;;9.50;82.00;;;;;;5049838;28;20017;-66
2023/04/30 02:04:35;;;;;;;4.70;3.90;;;9.50;81.90;;;;;;5050368;28;20352;-67
2023/04/30 02:07:00;;;;;;;4.40;3.55;;;9.50;81.80;;;;;;5049509;28;20075;-65
2023/04/30 02:09:26;;;;;;;5.00;3.83;;;9.50;81.80;;;;;;5050227;28;20029;-66
2023/04/30 02:11:51;;;;;;;5.68;4.28;;;9.40;81.70;;;;;;5050654;28;20104;-67
2023/04/30 02:14:17;;;;;;;4.50;3.78;;;9.40;81.70;;;;;;5050331;28;20029;-66
2023/04/30 02:16:42;;;;;;;5.35;3.90;;;9.40;81.70;;;;;;5036580;28;20028;-67
2023/04/30 02:19:08;;;;;;;7.60;4.50;;;9.40;81.70;;;;;;5050024;28;20043;-67
2023/04/30 02:21:33;;;;;;;5.50;4.00;;;9.40;81.70;;;;;;5049964;28;20028;-67
2023/04/30 02:23:59;;;;;;;8.73;4.50;;;9.30;81.60;;;;;;5049617;28;20025;-66
2023/04/30 02:26:25;;;;;;;7.15;5.00;;;9.30;81.70;;;;;;5049065;28;20024;-68
2023/04/30 02:28:51;;;;;;;7.15;4.82;;;9.30;81.90;;;;;;5049414;28;20492;-68
2023/04/30 02:31:16;;;;;;;7.55;4.57;;;9.20;82.30;;;;;;5042088;28;20033;-68
2023/04/30 02:33:42;;;;;;;5.97;4.50;;;9.10;82.60;;;;;;5049735;28;20491;-67
2023/04/30 02:36:08;;;;;;;6.72;5.10;;;9.10;82.90;;;;;;5052323;28;20029;-66
2023/04/30 02:38:33;;;;;;;6.57;4.93;;;8.90;83.70;;;;;;5052176;28;20023;-66
2023/04/30 02:40:59;;;;;;;5.93;4.13;;;8.90;84.00;;;;;;5052459;28;20029;-69
2023/04/30 02:43:24;;;;;;;7.68;5.47;;;8.90;83.80;;;;;;5053106;28;20096;-69
2023/04/30 02:45:50;;;;;;;6.82;4.40;;;8.90;84.00;;;;;;5053274;28;20083;-68
2023/04/30 02:48:15;;;;;;;5.97;4.05;;;8.90;84.10;;;;;;5052622;28;20284;-69
2023/04/30 02:50:41;;;;;;;5.75;4.25;;;8.80;84.10;;;;;;5052955;28;20025;-69
2023/04/30 02:53:06;;;;;;;5.68;4.00;;;8.80;84.20;;;;;;5053434;28;20111;-68
2023/04/30 02:55:32;;;;;;;6.00;3.90;;;8.90;84.30;;;;;;5053207;28;20025;-68
2023/04/30 02:57:57;;;;;;;6.93;4.30;;;8.90;84.10;;;;;;5052312;28;20402;-68
2023/04/30 03:00:23;;;;;;;8.55;5.80;;;8.90;84.20;;;;;;5052954;28;20108;-68
2023/04/30 03:02:48;;;;;;;7.13;4.85;;;8.80;84.90;;;;;;5052955;28;20407;-68
2023/04/30 03:05:17;;;;;;;8.15;5.15;;;8.70;85.00;;;;;;5052683;28;20537;-68
2023/04/30 03:07:42;;;;;;;6.10;4.47;;;8.70;85.40;;;;;;5052555;28;20108;-69
2023/04/30 03:10:09;;;;;;;7.00;4.90;;;8.70;85.50;;;;;;5053107;28;20104;-68
2023/04/30 03:12:35;;;;;;;6.50;4.70;;;8.60;85.60;;;;;;5052855;28;20017;-69
2023/04/30 03:15:00;;;;;;;7.13;4.72;;;8.60;85.80;;;;;;5046089;28;20491;-66
2023/04/30 03:17:26;;;;;;;8.32;5.13;;;8.60;86.10;;;;;;5052141;28;20025;-67
2023/04/30 03:19:51;;;;;;;8.52;5.32;;;8.60;86.10;;;;;;5052801;28;20025;-66
2023/04/30 03:22:22;;;;;;;5.97;4.97;;;8.50;86.20;;;;;;5052763;28;20025;-67
2023/04/30 03:24:48;;;;;;;8.27;5.03;;;8.50;86.60;;;;;;5051910;28;20028;-66
2023/04/30 03:27:15;;;;;;;8.48;5.28;;;8.50;86.60;;;;;;5052520;28;20029;-68
2023/04/30 03:29:41;;;;;;;8.25;5.50;;;8.50;86.90;;;;;;5052974;28;20017;-66
2023/04/30 03:32:06;;;;;;;8.05;5.10;;;8.40;87.30;;;;;;5039544;28;20021;-68
2023/04/30 03:34:32;;;;;;;8.30;5.22;;;8.40;87.30;;;;;;5052333;28;20025;-66
2023/04/30 03:36:57;;;;;;;7.90;5.47;;;8.40;87.30;;;;;;5050878;28;20049;-67
2023/04/30 03:39:23;;;;;;;7.32;4.20;;;8.40;87.60;;;;;;5052114;28;20025;-65
2023/04/30 03:41:48;;;;;;;6.10;4.38;;;8.40;87.50;;;;;;5052170;28;20033;-67
2023/04/30 03:44:14;;;;;;;8.20;5.05;;;8.50;87.30;;;;;;5052057;28;20029;-67
2023/04/30 03:46:43;;;;;;;7.38;5.07;;;8.40;87.20;;;;;;5051481;28;20021;-67
2023/04/30 03:49:09;;;;;;;7.03;4.65;;;8.40;87.20;;;;;;5051236;28;20097;-67
2023/04/30 03:51:38;;;;;;;8.65;5.35;;;8.40;87.20;;;;;;5052018;28;20017;-66
2023/04/30 03:54:05;;;;;;;6.95;5.18;;;8.40;87.30;;;;;;5051979;28;20021;-66
2023/04/30 03:56:31;;;;;;;7.85;5.22;;;8.40;87.50;;;;;;5051826;28;20103;-67
2023/04/30 03:58:57;;;;;;;9.65;5.65;;;8.30;87.60;;;;;;5051624;28;20067;-68
2023/04/30 04:01:22;;;;;;;7.90;5.20;;;8.30;88.00;;;;;;5051853;28;20025;-66
2023/04/30 04:03:48;;;;;;;8.60;5.65;;;8.30;88.20;;;;;;5051682;28;20071;-66
2023/04/30 04:06:13;;;;;;;8.68;6.15;;;8.20;88.10;;;;;;5051120;28;20023;-65
2023/04/30 04:08:42;;;;;;;8.20;6.18;;;8.20;88.40;;;;;;5051625;28;20494;-68
2023/04/30 04:11:08;;;;;;;8.57;5.78;;;8.30;88.50;;;;;;5051994;28;20040;-68
2023/04/30 04:13:34;;;;;;;8.75;6.60;;;8.20;88.60;;;;;;5050839;28;20021;-67
2023/04/30 04:15:59;;;;;;;10.68;7.13;;;8.30;88.60;;;;;;5032765;28;20286;-68
2023/04/30 04:18:25;;;;;;;10.52;6.47;;;8.30;88.80;;;;;;5051381;28;20025;-67
2023/04/30 04:20:50;;;;;;;8.65;6.60;;;8.20;88.80;;;;;;5051349;28;20082;-66
2023/04/30 04:23:16;;;;;;;8.95;6.57;;;8.20;88.80;;;;;;5051416;28;20017;-67
2023/04/30 04:25:43;;;;;;;7.72;5.47;;;8.20;88.90;;;;;;5050420;28;20029;-67
2023/04/30 04:28:08;;;;;;;8.98;6.13;;;8.30;88.80;;;;;;5051316;28;20436;-67
2023/04/30 04:30:35;;;;;;;6.00;5.25;;;8.20;88.80;;;;;;5051607;28;20106;-67
2023/04/30 04:33:01;;;;;;;9.52;5.53;;;8.30;88.60;;;;;;5039692;28;20162;-65
2023/04/30 04:35:26;;;;;;;8.77;5.43;;;8.30;88.40;;;;;;5051267;28;20060;-68
2023/04/30 04:37:52;;;;;;;9.52;6.15;;;8.40;88.30;;;;;;5051195;28;20033;-67
2023/04/30 04:40:18;;;;;;;7.72;5.25;;;8.40;88.10;;;;;;5052080;28;20029;-66
2023/04/30 04:42:43;;;;;;;6.63;5.15;;;8.40;88.00;;;;;;5050390;28;20029;-66
2023/04/30 04:45:09;;;;;;;6.40;4.97;;;8.40;87.90;;;;;;5051057;28;20017;-67
2023/04/30 04:47:36;;;;;;;9.00;5.05;;;8.50;87.80;;;;;;5050917;28;20071;-68
2023/04/30 04:50:02;;;;;;;8.05;5.35;;;8.50;87.60;;;;;;5032971;28;20025;-65
2023/04/30 04:52:27;;;;;;;9.07;6.03;;;8.60;87.40;;;;;;5050396;28;20023;-66
2023/04/30 04:54:53;;;;;;;9.63;5.55;;;8.60;87.30;;;;;;5051102;28;20025;-68
2023/04/30 04:57:18;;;;;;;8.48;5.63;;;8.60;87.30;;;;;;5050985;28;20033;-67
2023/04/30 04:59:44;;;;;;;9.55;5.80;;;8.50;87.40;;;;;;5050163;28;20380;-66
2023/04/30 05:02:09;;;;;;;8.43;6.13;;;8.50;87.50;;;;;;5049754;28;20476;-67
2023/04/30 05:04:35;;;;;;;9.93;6.28;;;8.60;87.70;;;;;;5032688;28;20472;-68
2023/04/30 05:07:01;;;;;;;10.07;7.00;;;8.60;87.70;;;;;;5050427;28;20025;-66
2023/04/30 05:09:27;;;;;;;9.73;7.05;;;8.60;87.80;;;;;;5049913;28;20066;-67
2023/04/30 05:11:52;;;;;;;11.05;7.15;;;8.60;87.90;;;;;;5050396;28;20025;-66
2023/04/30 05:14:19;;;;;;;10.45;6.82;;;8.60;88.00;;;;;;5050976;28;20052;-66
2023/04/30 05:16:45;;;;;;;11.88;7.15;;;8.60;88.10;;;;;;5049905;28;20496;-67
2023/04/30 05:19:10;;;;;;;10.50;7.18;;;8.60;88.40;;;;;;5050154;28;20050;-66
2023/04/30 05:21:36;;;;;;;9.65;6.50;;;8.60;88.40;;;;;;5050365;28;20021;-68
2023/04/30 05:24:02;;;;;;;11.05;6.57;;;8.70;88.70;;;;;;5050375;28;20490;-68
2023/04/30 05:26:28;;;;;;;10.23;6.78;;;8.70;88.70;;;;;;5049703;28;20448;-67
2023/04/30 05:28:53;;;;;;;10.43;6.40;;;9.40;89.40;;;;;;5044311;28;20029;-67
2023/04/30 05:31:19;;;;;;;8.65;5.97;;;10.70;86.90;;;;;;5050402;28;20425;-67
2023/04/30 05:33:44;;;;;;;8.07;5.97;;;11.80;82.30;;;;;;5048899;28;20514;-66
2023/04/30 05:36:10;;;;;;;7.70;5.75;;;12.70;78.20;;;;;;5049121;28;20094;-66
2023/04/30 05:38:36;;;;;;;8.82;5.60;;;13.60;74.70;;;;;;5049964;28;20086;-66
2023/04/30 05:41:01;;;;;;;8.40;5.82;;;14.40;71.80;;;;;;5050057;28;20039;-67
2023/04/30 05:43:27;;;;;;;9.00;5.43;;;15.10;68.70;;;;;;5031511;28;20052;-68
2023/04/30 05:45:52;;;;;;;6.68;4.90;;;15.50;66.60;;;;;;5049889;28;20095;-67
2023/04/30 05:48:18;;;;;;;10.00;5.72;;;15.70;64.80;;;;;;5049799;28;20024;-67
2023/04/30 05:50:43;;;;;;;6.65;4.60;;;16.00;62.90;;;;;;5049900;28;20140;-67
2023/04/30 05:53:09;;;;;;;8.35;4.95;;;16.40;62.70;;;;;;5049277;28;20036;-67
2023/04/30 05:55:35;;;;;;;7.13;4.70;;;16.70;60.10;;;;;;5049884;28;20025;-67
2023/04/30 05:58:00;;;;;;;7.13;4.80;;;16.90;59.70;;;;;;5049895;28;20029;-66
2023/04/30 06:00:26;;;;;;;6.78;4.65;;;17.20;59.30;;;;;;5031596;28;20506;-68
2023/04/30 06:02:52;;;;;;;6.32;4.70;;;17.40;57.60;;;;;;5049590;28;20402;-68
2023/04/30 06:05:18;;;;;;;6.72;4.80;;;17.50;57.40;;;;;;5049877;28;20431;-66
2023/04/30 06:07:43;;;;;;;6.90;4.30;;;17.50;55.90;;;;;;5049749;28;20106;-67
2023/04/30 06:10:09;;;;;;;6.15;4.32;;;17.50;55.60;;;;;;5050510;28;20596;-67
2023/04/30 06:12:35;;;;;;;5.78;4.05;;;17.70;55.80;;;;;;5035830;28;20112;-68
2023/04/30 06:15:00;;;;;;;5.75;3.53;;;18.10;55.10;;;;;;5035756;28;20013;-67
2023/04/30 06:17:26;;;;;;;8.05;4.20;;;18.80;54.40;;;;;;5053025;28;20534;-66
2023/04/30 06:19:52;;;;;;;5.43;3.55;;;19.10;53.60;;;;;;5053603;28;20091;-67
2023/04/30 06:22:17;;;;;;;6.53;4.20;;;19.40;52.60;;;;;;5053625;28;20422;-68
2023/04/30 06:24:43;;;;;;;9.05;3.72;;;19.00;52.00;;;;;;5052709;28;20025;-67
2023/04/30 06:27:08;;;;;;;5.45;3.60;;;19.50;52.40;;;;;;5035298;28;20049;-66
2023/04/30 06:29:34;;;;;;;5.15;3.55;;;20.00;51.30;;;;;;5053664;28;20028;-67
2023/04/30 06:32:00;;;;;;;6.60;4.10;;;20.40;50.70;;;;;;5052829;28;20013;-68
2023/04/30 06:34:25;;;;;;;6.75;4.00;;;20.60;50.20;;;;;;5044978;28;20475;-68
2023/04/30 06:36:51;;;;;;;7.07;4.55;;;20.40;49.40;;;;;;5053389;28;20056;-67
2023/04/30 06:39:16;;;;;;;5.80;3.80;;;20.00;50.10;;;;;;5053424;28;20036;-67
2023/04/30 06:41:42;;;;;;;5.95;4.20;;;20.20;50.80;;;;;;5052673;28;20055;-67
2023/04/30 06:44:08;;;;;;;5.95;3.65;;;20.10;49.60;;;;;;5053143;28;20036;-67
2023/04/30 06:46:33;;;;;;;5.25;3.38;;;20.10;50.50;;;;;;5053331;28;20021;-67
2023/04/30 06:48:59;;;;;;;7.07;4.07;;;20.70;50.30;;;;;;5035031;28;20388;-67
2023/04/30 06:51:25;;;;;;;6.22;4.40;;;20.50;49.40;;;;;;5052314;28;20672;-66
2023/04/30 06:53:51;;;;;;;6.35;3.97;;;20.00;49.70;;;;;;5053103;28;20021;-68
2023/04/30 06:56:17;;;;;;;7.13;4.40;;;20.10;50.30;;;;;;5053215;28;20036;-65
2023/04/30 06:58:43;;;;;;;7.75;5.00;;;19.80;50.40;;;;;;5052647;28;20037;-67
2023/04/30 07:01:09;;;;;;;6.88;4.28;;;19.80;50.40;;;;;;5052728;28;20117;-67
2023/04/30 07:03:35;;;;;;;6.60;3.95;;;19.90;50.70;;;;;;5052915;28;20476;-67
2023/04/30 07:06:01;;;;;;;5.30;3.38;;;20.40;50.50;;;;;;5052801;28;20507;-67
2023/04/30 07:08:26;;;;;;;5.70;3.90;;;20.90;49.80;;;;;;5052481;28;20356;-67
2023/04/30 07:10:52;;;;;;;4.68;3.45;;;20.70;49.20;;;;;;5052797;28;20075;-67
2023/04/30 07:13:17;;;;;;;6.45;4.28;;;20.90;49.10;;;;;;5053092;28;20032;-67
2023/04/30 07:15:43;;;;;;;5.28;3.60;;;21.00;48.50;;;;;;5050929;28;20025;-67
2023/04/30 07:18:09;;;;;;;5.90;3.60;;;21.00;48.40;;;;;;5052842;28;20032;-67
2023/04/30 07:20:34;;;;;;;5.65;3.33;;;21.10;48.20;;;;;;5053332;28;20031;-67
2023/04/30 07:23:00;;;;;;;6.05;3.45;;;21.20;48.30;;;;;;5051912;28;20047;-67
2023/04/30 07:25:26;;;;;;;5.75;3.90;;;21.70;47.90;;;;;;5051871;28;20471;-68
2023/04/30 07:27:54;;;;;;;6.22;3.92;;;21.60;47.40;;;;;;5052335;28;20340;-68
2023/04/30 07:30:21;;;;;;;5.55;3.30;;;21.10;46.90;;;;;;5052556;28;20452;-67
2023/04/30 07:32:47;;;;;;;5.00;3.17;;;21.00;47.40;;;;;;5052368;28;20024;-66
2023/04/30 07:35:13;;;;;;;6.50;3.42;;;20.80;48.30;;;;;;5051667;28;20082;-68
2023/04/30 07:37:39;;;;;;;6.10;3.55;;;20.70;48.10;;;;;;5052170;28;20086;-67
2023/04/30 07:40:08;;;;;;;5.38;3.20;;;20.30;48.80;;;;;;5052377;28;20112;-65
2023/04/30 07:42:33;;;;;;;5.70;3.83;;;20.20;49.40;;;;;;5052220;28;20013;-67
2023/04/30 07:44:59;;;;;;;5.38;3.45;;;20.10;50.10;;;;;;5051835;28;20036;-66
2023/04/30 07:47:25;;;;;;;5.07;3.30;;;20.10;50.20;;;;;;5051891;28;20376;-66
2023/04/30 07:49:51;;;;;;;5.97;3.78;;;20.10;50.70;;;;;;5052251;28;20025;-67
2023/04/30 07:52:17;;;;;;;6.05;4.15;;;19.60;51.00;;;;;;5052107;28;20032;-68
2023/04/30 07:54:42;;;;;;;6.00;3.80;;;19.10;51.70;;;;;;5051397;28;20075;-67
2023/04/30 07:57:08;;;;;;;4.93;3.58;;;18.80;53.40;;;;;;5051723;28;20025;-67
2023/04/30 07:59:33;;;;;;;7.78;4.13;;;18.60;53.90;;;;;;5052254;28;20067;-67
2023/04/30 08:02:00;;;;;;;6.78;3.80;;;17.90;54.30;;;;;;5051728;28;20029;-67
2023/04/30 08:04:26;;;;;;;6.57;3.80;;;17.60;55.60;;;;;;5050908;28;20105;-67
2023/04/30 08:06:51;;;;;;;4.93;3.38;;;17.40;55.90;;;;;;5051783;28;20096;-67
2023/04/30 08:09:17;;;;;;;5.78;4.00;;;17.10;57.00;;;;;;5050592;28;20354;-67
2023/04/30 08:11:42;;;;;;;6.38;4.25;;;16.80;57.30;;;;;;5048895;28;20025;-67
2023/04/30 08:14:08;;;;;;;5.38;3.67;;;16.40;57.30;;;;;;5066670;28;20025;-67
2023/04/30 08:16:34;;;;;;;5.20;3.20;;;16.10;58.50;;;;;;5034285;28;20112;-68
2023/04/30 08:18:59;;;;;;;5.05;3.40;;;16.20;59.20;;;;;;5051419;28;20052;-68
2023/04/30 08:21:26;;;;;;;5.05;3.60;;;16.20;59.60;;;;;;5051637;28;20068;-68
2023/04/30 08:23:53;;;;;;;6.75;5.68;;;16.30;59.00;;;;;;5051368;28;20029;-67
2023/04/30 08:26:18;;;;;;;5.75;4.18;;;16.10;59.00;;;;;;5050451;28;20094;-68
2023/04/30 08:28:44;;;;;;;5.65;4.10;;;16.10;59.50;;;;;;5051275;28;20488;-68
2023/04/30 08:31:09;;;;;;;5.75;3.97;;;16.20;59.40;;;;;;5051116;28;20139;-67
2023/04/30 08:33:35;;;;;;;7.25;3.80;;;16.00;58.80;;;;;;5050424;28;20066;-67
2023/04/30 08:36:01;;;;;;;4.47;3.47;;;15.80;58.80;;;;;;5051152;28;20051;-68
2023/04/30 08:38:27;;;;;;;6.43;4.30;;;15.80;59.60;;;;;;5051576;28;20055;-68
2023/04/30 08:41:22;;;;;;;5.88;3.97;;;15.90;59.70;;;;;;5051181;28;20462;-68
2023/04/30 08:43:52;;;;;;;5.25;3.63;;;15.90;59.70;;;;;;5046265;28;20111;-66
2023/04/30 08:46:19;;;;;;;4.72;3.70;;;16.00;59.80;;;;;;5050792;28;20021;-65
2023/04/30 08:48:47;;;;;;;4.68;3.50;;;16.10;60.00;;;;;;5050951;28;20029;-67
2023/04/30 08:51:13;;;;;;;5.28;3.80;;;16.30;59.20;;;;;;5050051;28;20013;-69
2023/04/30 08:53:41;;;;;;;5.18;3.60;;;16.20;58.70;;;;;;5051176;28;20025;-67
2023/04/30 08:56:09;;;;;;;4.40;3.22;;;16.20;58.90;;;;;;5050633;28;20032;-68
2023/04/30 08:58:34;;;;;;;5.18;3.65;;;16.30;59.00;;;;;;5050660;28;20108;-66
2023/04/30 09:01:01;;;;;;;4.72;3.05;;;16.50;58.50;;;;;;5050108;28;20116;-67
2023/04/30 09:03:27;;;;;;;3.88;2.85;;;16.50;57.90;;;;;;5050310;28;20021;-67
2023/04/30 09:05:53;;;;;;;5.65;3.00;;;16.50;56.40;;;;;;5050733;28;20075;-68
2023/04/30 09:08:40;;;;;;;3.92;2.83;;;16.50;56.60;;;;;;5050375;28;20053;-67
2023/04/30 09:11:23;;;;;;;3.22;2.35;;;16.50;56.90;;;;;;5050092;28;20017;-67
2023/04/30 09:13:51;;;;;;;4.18;3.35;;;16.50;56.70;;;;;;5050318;28;20017;-67
2023/04/30 09:16:17;;;;;;;6.20;3.72;;;16.60;56.80;;;;;;5049826;28;20498;-68
2023/04/30 09:18:43;;;;;;;5.15;3.20;;;16.60;57.10;;;;;;5050220;28;20036;-68
2023/04/30 09:21:08;;;;;;;4.40;3.38;;;16.70;57.30;;;;;;5050531;28;20029;-68
2023/04/30 09:23:34;;;;;;;4.65;3.53;;;16.80;57.00;;;;;;5049548;28;20546;-68
2023/04/30 09:26:00;;;;;;;4.40;3.65;;;16.60;56.10;;;;;;5050204;28;20025;-68
2023/04/30 09:28:27;;;;;;;4.75;3.13;;;16.60;56.40;;;;;;5030218;28;20032;-68
2023/04/30 09:30:56;;;;;;;4.20;3.22;;;16.70;57.00;;;;;;5030577;28;20388;-68
2023/04/30 09:33:22;;;;;;;3.00;2.60;;;16.70;56.80;;;;;;5046916;28;20370;-66
2023/04/30 09:35:48;;;;;;;4.35;2.80;;;16.80;56.50;;;;;;5049972;28;20032;-68
2023/04/30 09:38:26;;;;;;;3.85;2.70;;;16.90;55.90;;;;;;5050337;28;20342;-68
2023/04/30 09:40:52;;;;;;;5.68;3.45;;;17.00;55.30;;;;;;5049443;28;20483;-67
2023/04/30 09:43:17;;;;;;;4.25;2.95;;;16.90;55.70;;;;;;5049878;28;20027;-68
2023/04/30 09:45:47;;;;;;;4.03;3.15;;;16.90;56.00;;;;;;5048319;28;20027;-68
2023/04/30 09:48:15;;;;;;;5.65;3.45;;;16.90;55.70;;;;;;5050269;28;20021;-66
2023/04/30 09:50:41;;;;;;;3.90;2.97;;;16.70;54.20;;;;;;5049665;28;20028;-67
2023/04/30 09:53:07;;;;;;;3.33;2.70;;;16.40;55.50;;;;;;5050639;28;20037;-66
2023/04/30 09:55:35;;;;;;;5.20;2.95;;;16.60;56.20;;;;;;5032780;28;20518;-67
2023/04/30 09:58:04;;;;;;;3.70;2.50;;;16.70;55.60;;;;;;5050344;28;20120;-69
2023/04/30 10:00:32;;;;;;;3.78;2.70;;;16.70;55.20;;;;;;5049254;28;20045;-68
2023/04/30 10:03:00;;;;;;;3.85;3.30;;;16.90;55.70;;;;;;5049825;28;20025;-67
2023/04/30 10:05:27;;;;;;;7.20;3.75;;;16.80;55.50;;;;;;5049907;28;20021;-67
2023/04/30 10:07:53;;;;;;;5.93;4.15;;;16.80;55.30;;;;;;5049755;28;20018;-67
2023/04/30 10:10:20;;;;;;;4.10;2.95;;;16.70;55.40;;;;;;5049330;28;20446;-68
2023/04/30 10:12:55;;;;;;;5.65;3.55;;;16.70;55.90;;;;;;5050092;28;20555;-66
2023/04/30 10:15:27;;;;;;;3.60;2.80;;;16.80;55.70;;;;;;5050235;28;20055;-68
2023/04/30 10:18:01;;;;;;;4.90;3.20;;;17.00;56.10;;;;;;5049030;28;20017;-69
2023/04/30 10:20:27;;;;;;;5.35;3.10;;;17.20;55.50;;;;;;5030096;28;20028;-67
2023/04/30 10:22:53;;;;;;;4.43;3.00;;;17.30;55.70;;;;;;5030339;28;20025;-68
2023/04/30 10:25:18;;;;;;;5.68;3.55;;;17.40;55.10;;;;;;5037774;28;20033;-68
2023/04/30 10:27:45;;;;;;;4.32;3.17;;;17.30;54.70;;;;;;5049909;28;20024;-65
2023/04/30 10:30:11;;;;;;;5.68;3.53;;;17.40;55.10;;;;;;5050230;28;20028;-67
2023/04/30 10:32:46;;;;;;;4.18;2.95;;;17.40;54.70;;;;;;5049948;28;20036;-68
2023/04/30 10:35:43;;;;;;;6.43;4.32;;;17.30;54.90;;;;;;5049002;28;20485;-68
2023/04/30 10:38:21;;;;;;;6.85;4.18;;;17.20;54.80;;;;;;5049391;28;20064;-68
2023/04/30 10:40:49;;;;;;;4.47;3.25;;;17.10;54.60;;;;;;5045647;28;20025;-68
2023/04/30 10:43:18;;;;;;;5.85;3.80;;;17.00;55.40;;;;;;5049220;28;20104;-68
2023/04/30 10:45:44;;;;;;;4.18;3.30;;;17.00;55.60;;;;;;5049190;28;20031;-67
2023/04/30 10:48:10;;;;;;;4.47;3.45;;;17.10;55.70;;;;;;5049481;28;20021;-67
2023/04/30 10:50:41;;;;;;;4.45;3.20;;;17.30;55.80;;;;;;5048572;28;20025;-66
2023/04/30 10:53:06;;;;;;;4.63;3.33;;;17.30;55.20;;;;;;5049579;28;20035;-68
2023/04/30 10:55:32;;;;;;;5.32;3.30;;;17.30;55.40;;;;;;5050001;28;20021;-68
2023/04/30 10:57:58;;;;;;;6.03;3.80;;;17.40;55.60;;;;;;5052419;28;20151;-67
2023/04/30 11:00:26;;;;;;;4.88;3.20;;;17.40;55.00;;;;;;5052913;28;20032;-67
2023/04/30 11:02:57;;;;;;;8.43;4.00;;;17.40;55.20;;;;;;5053201;28;20028;-68
2023/04/30 11:05:35;;;;;;;3.75;3.35;;;17.30;54.80;;;;;;5052277;28;20032;-68
2023/04/30 11:08:01;;;;;;;5.97;3.65;;;17.10;55.40;;;;;;5076654;28;20029;-68
2023/04/30 11:10:31;;;;;;;4.80;3.40;;;17.10;56.00;;;;;;5052847;28;20029;-68
2023/04/30 11:12:58;;;;;;;4.60;3.50;;;17.40;56.20;;;;;;5053096;28;20025;-67
2023/04/30 11:15:26;;;;;;;4.53;3.38;;;17.50;55.70;;;;;;5051908;28;20017;-68
2023/04/30 11:17:57;;;;;;;4.28;3.30;;;17.60;55.50;;;;;;5051883;28;20017;-67
2023/04/30 11:20:24;;;;;;;5.53;3.50;;;17.70;55.40;;;;;;5051006;28;20083;-67
2023/04/30 11:23:16;;;;;;;4.60;3.20;;;17.80;55.50;;;;;;5052735;28;20060;-67
2023/04/30 11:25:46;;;;;;;5.03;3.60;;;17.90;55.40;;;;;;5051668;28;20061;-67
2023/04/30 11:28:23;;;;;;;5.00;3.22;;;17.80;54.80;;;;;;5052995;28;20428;-66
2023/04/30 11:30:56;;;;;;;5.82;3.97;;;18.00;55.30;;;;;;5052894;28;20017;-67
2023/04/30 11:33:27;;;;;;;5.43;3.45;;;18.10;55.20;;;;;;5052349;28;20021;-68
2023/04/30 11:35:54;;;;;;;4.13;3.40;;;18.10;55.60;;;;;;5052411;28;20025;-67
2023/04/30 11:38:25;;;;;;;5.97;3.80;;;18.10;55.40;;;;;;5052805;28;20092;-68
2023/04/30 11:40:51;;;;;;;4.38;3.22;;;18.10;54.60;;;;;;5052272;28;20495;-68
2023/04/30 11:43:27;;;;;;;5.07;3.05;;;18.20;55.10;;;;;;5051545;28;20045;-68
2023/04/30 11:46:14;;;;;;;3.60;3.15;;;18.40;54.50;;;;;;5052242;28;20021;-67
2023/04/30 11:48:41;;;;;;;5.07;3.83;;;18.30;54.20;;;;;;5052188;28;20047;-69
2023/04/30 11:51:16;;;;;;;2.92;2.28;;;18.30;53.30;;;;;;5052310;28;20044;-67
2023/04/30 11:53:42;;;;;;;4.50;3.10;;;18.50;54.30;;;;;;5051756;28;20036;-68
2023/04/30 11:56:08;;;;;;;3.88;2.85;;;18.50;53.40;;;;;;5052107;28;20498;-69
2023/04/30 11:58:38;;;;;;;5.70;3.17;;;18.40;53.50;;;;;;5051976;28;20032;-67
2023/04/30 12:01:06;;;;;;;3.65;2.90;;;18.50;53.80;;;;;;5043647;28;20028;-67
2023/04/30 12:03:32;;;;;;;3.63;2.42;;;18.40;53.60;;;;;;5051766;28;20115;-67
2023/04/30 12:05:58;;;;;;;2.50;1.95;;;18.60;53.90;;;;;;5051854;28;20048;-67
2023/04/30 12:08:23;;;;;;;2.78;2.10;;;19.00;53.60;;;;;;5050399;28;20020;-67
2023/04/30 12:10:49;;;;;;;5.90;2.90;;;19.00;52.30;;;;;;5051818;28;20025;-66
2023/04/30 12:13:15;;;;;;;3.90;2.45;;;19.10;51.80;;;;;;5052375;28;20048;-69
2023/04/30 12:15:41;;;;;;;4.20;2.65;;;19.10;52.30;;;;;;5050968;28;20116;-69
2023/04/30 12:18:14;;;;;;;4.35;2.70;;;18.90;51.90;;;;;;5050710;28;20091;-69
2023/04/30 12:20:40;;;;;;;3.70;2.25;;;19.00;52.80;;;;;;5051710;28;20020;-69
2023/04/30 12:23:07;;;;;;;3.35;2.10;;;19.20;52.90;;;;;;5052040;28;20021;-68
2023/04/30 12:25:41;;;;;;;3.80;2.10;;;19.50;52.50;;;;;;5051139;28;20036;-69
2023/04/30 12:28:07;;;;;;;3.05;2.47;;;19.70;51.60;;;;;;5049173;28;20020;-68
2023/04/30 12:30:32;;;;;;;4.88;2.50;;;19.90;50.70;;;;;;5051734;28;20017;-67
2023/04/30 12:32:59;;;;;;;4.68;2.60;;;19.90;50.60;;;;;;5033954;28;20028;-67
2023/04/30 12:35:28;;;;;;;3.35;2.20;;;19.70;50.30;;;;;;5050749;28;20490;-68
2023/04/30 12:38:04;;;;;;;2.63;2.17;;;19.60;50.70;;;;;;5051301;28;20479;-67
2023/04/30 12:40:30;;;;;;;3.55;2.00;;;19.50;50.60;;;;;;5051305;28;20518;-69
2023/04/30 12:43:06;;;;;;;2.45;1.67;;;19.40;51.20;;;;;;5050509;28;20052;-68
2023/04/30 12:45:52;;;;;;;3.28;1.85;;;19.60;51.20;;;;;;5050840;28;20384;-67
2023/04/30 12:48:20;;;;;;;2.10;1.70;;;19.70;50.20;;;;;;5051159;28;20387;-69
2023/04/30 12:50:55;;;;;;;3.80;2.15;;;19.60;50.40;;;;;;5032456;28;20070;-69
2023/04/30 12:53:21;;;;;;;5.68;2.10;;;19.70;50.40;;;;;;5051133;28;20028;-68